createdAt,value
2019-03-09T00:00:06.695Z,0
2019-03-09T00:01:07.262Z,0
2019-03-09T00:02:07.834Z,0
2019-03-09T00:03:08.409Z,0
2019-03-09T00:04:08.977Z,0
2019-03-09T00:05:09.542Z,0
2019-03-09T00:06:10.108Z,0
2019-03-09T00:07:10.674Z,0
2019-03-09T00:08:11.240Z,0
2019-03-09T00:09:11.806Z,0
2019-03-09T00:10:12.375Z,0
2019-03-09T00:11:12.942Z,0
2019-03-09T00:12:13.507Z,0
2019-03-09T00:13:14.087Z,0
2019-03-09T00:14:14.653Z,0
2019-03-09T00:15:15.220Z,0
2019-03-09T00:16:15.786Z,0
2019-03-09T00:17:16.365Z,0
2019-03-09T00:18:16.934Z,0
2019-03-09T00:19:17.501Z,0
2019-03-09T00:20:18.079Z,0
2019-03-09T00:21:18.650Z,0
2019-03-09T00:22:19.211Z,0
2019-03-09T00:23:19.778Z,0
2019-03-09T00:24:20.345Z,0
2019-03-09T00:25:20.910Z,0
2019-03-09T00:26:21.477Z,0
2019-03-09T00:27:29.617Z,0
2019-03-09T00:28:22.617Z,0
2019-03-09T00:29:23.186Z,0
2019-03-09T00:30:23.757Z,0
2019-03-09T00:31:25.482Z,0
2019-03-09T00:32:25.884Z,0
2019-03-09T00:33:26.452Z,0
2019-03-09T00:34:27.022Z,0
2019-03-09T00:35:27.805Z,0
2019-03-09T00:36:28.373Z,0
2019-03-09T00:37:28.940Z,0
2019-03-09T00:38:29.509Z,0
2019-03-09T00:39:30.071Z,0
2019-03-09T00:40:30.639Z,0
2019-03-09T00:41:31.206Z,0
2019-03-09T00:42:31.772Z,0
2019-03-09T00:43:32.340Z,0
2019-03-09T00:44:32.907Z,0
2019-03-09T00:45:33.475Z,0
2019-03-09T00:46:34.039Z,0
2019-03-09T00:47:34.606Z,0
2019-03-09T00:48:35.172Z,0
2019-03-09T00:49:35.838Z,0
2019-03-09T00:50:36.404Z,0
2019-03-09T00:51:36.973Z,0
2019-03-09T00:52:37.538Z,0
2019-03-09T00:53:38.110Z,0
2019-03-09T00:54:38.690Z,0
2019-03-09T00:55:39.258Z,0
2019-03-09T00:56:39.836Z,0
2019-03-09T00:57:40.405Z,0
2019-03-09T00:58:40.973Z,0
2019-03-09T00:59:41.540Z,0
2019-03-09T01:00:42.107Z,0
2019-03-09T01:01:42.676Z,0
2019-03-09T01:02:43.254Z,0
2019-03-09T01:03:43.819Z,0
2019-03-09T01:04:44.391Z,0
2019-03-09T01:05:44.966Z,0
2019-03-09T01:06:45.533Z,0
2019-03-09T01:07:46.101Z,0
2019-03-09T01:08:46.667Z,0
2019-03-09T01:09:47.234Z,0
2019-03-09T01:10:47.801Z,0
2019-03-09T01:11:48.366Z,0
2019-03-09T01:12:48.934Z,0
2019-03-09T01:13:49.519Z,0
2019-03-09T01:14:50.079Z,0
2019-03-09T01:15:50.647Z,0
2019-03-09T01:16:51.214Z,0
2019-03-09T01:17:51.784Z,0
2019-03-09T01:18:52.348Z,0
2019-03-09T01:19:52.917Z,0
2019-03-09T01:20:53.483Z,0
2019-03-09T01:21:54.049Z,0
2019-03-09T01:22:54.615Z,0
2019-03-09T01:23:55.181Z,0
2019-03-09T01:24:55.749Z,0
2019-03-09T01:25:56.316Z,0
2019-03-09T01:26:56.882Z,0
2019-03-09T01:27:57.452Z,0
2019-03-09T01:28:58.016Z,0
2019-03-09T01:29:58.586Z,0
2019-03-09T01:30:59.161Z,0
2019-03-09T01:31:59.727Z,0
2019-03-09T01:33:00.296Z,0
2019-03-09T01:34:00.863Z,0
2019-03-09T01:35:01.432Z,0
2019-03-09T01:36:01.996Z,0
2019-03-09T01:37:02.562Z,0
2019-03-09T01:38:03.129Z,0
2019-03-09T01:39:03.707Z,0
2019-03-09T01:40:04.277Z,0
2019-03-09T01:41:04.842Z,0
2019-03-09T01:42:05.409Z,0
2019-03-09T01:43:05.988Z,0
2019-03-09T01:44:06.564Z,0
2019-03-09T01:45:07.132Z,0
2019-03-09T01:46:07.698Z,0
2019-03-09T01:47:08.281Z,0
2019-03-09T01:48:08.845Z,0
2019-03-09T01:49:09.412Z,0
2019-03-09T01:50:09.981Z,0
2019-03-09T01:51:10.557Z,0
2019-03-09T01:52:11.122Z,0
2019-03-09T01:53:11.699Z,0
2019-03-09T01:54:12.268Z,0
2019-03-09T01:55:12.849Z,0
2019-03-09T01:56:13.424Z,0
2019-03-09T01:57:13.990Z,0
2019-03-09T01:58:14.558Z,0
2019-03-09T01:59:15.122Z,0
2019-03-09T02:00:15.688Z,0
2019-03-09T02:01:16.254Z,0
2019-03-09T02:02:16.820Z,0
2019-03-09T02:03:17.387Z,0
2019-03-09T02:04:17.952Z,0
2019-03-09T02:05:18.522Z,0
2019-03-09T02:06:19.086Z,0
2019-03-09T02:07:19.650Z,0
2019-03-09T02:08:20.217Z,0
2019-03-09T02:09:20.782Z,0
2019-03-09T02:10:21.349Z,0
2019-03-09T02:11:21.915Z,0
2019-03-09T02:12:22.481Z,0
2019-03-09T02:13:23.047Z,0
2019-03-09T02:14:23.616Z,0
2019-03-09T02:15:24.179Z,0
2019-03-09T02:16:24.745Z,0
2019-03-09T02:17:25.311Z,0
2019-03-09T02:18:25.878Z,0
2019-03-09T02:19:26.446Z,0
2019-03-09T02:20:27.021Z,0
2019-03-09T02:21:27.589Z,0
2019-03-09T02:22:28.156Z,0
2019-03-09T02:23:28.722Z,0
2019-03-09T02:24:29.287Z,0
2019-03-09T02:25:29.865Z,0
2019-03-09T02:26:30.474Z,0
2019-03-09T02:27:31.010Z,0
2019-03-09T02:28:31.577Z,0
2019-03-09T02:29:32.157Z,0
2019-03-09T02:30:32.723Z,0
2019-03-09T02:31:33.301Z,0
2019-03-09T02:32:33.885Z,0
2019-03-09T02:33:34.466Z,0
2019-03-09T02:34:35.009Z,0
2019-03-09T02:35:35.592Z,0
2019-03-09T02:36:36.156Z,0
2019-03-09T02:37:36.724Z,0
2019-03-09T02:38:37.291Z,0
2019-03-09T02:39:37.860Z,0
2019-03-09T02:40:38.435Z,0
2019-03-09T02:41:38.994Z,0
2019-03-09T02:42:39.560Z,0
2019-03-09T02:43:40.129Z,0
2019-03-09T02:44:40.692Z,0
2019-03-09T02:45:41.264Z,0
2019-03-09T02:46:41.827Z,0
2019-03-09T02:47:42.406Z,0
2019-03-09T02:48:42.974Z,0
2019-03-09T02:49:43.549Z,0
2019-03-09T02:50:44.116Z,0
2019-03-09T02:51:44.683Z,0
2019-03-09T02:52:45.248Z,0
2019-03-09T02:53:45.816Z,0
2019-03-09T02:54:46.381Z,0
2019-03-09T02:55:46.946Z,0
2019-03-09T02:56:47.512Z,0
2019-03-09T02:57:48.080Z,0
2019-03-09T02:58:48.647Z,0
2019-03-09T02:59:49.215Z,0
2019-03-09T03:00:49.784Z,0
2019-03-09T03:01:50.352Z,0
2019-03-09T03:02:50.918Z,0
2019-03-09T03:03:51.485Z,0
2019-03-09T03:04:52.052Z,0
2019-03-09T03:05:52.618Z,0
2019-03-09T03:06:53.187Z,0
2019-03-09T03:07:53.769Z,0
2019-03-09T03:08:54.343Z,0
2019-03-09T03:09:54.924Z,0
2019-03-09T03:10:55.490Z,0
2019-03-09T03:11:56.058Z,0
2019-03-09T03:12:56.624Z,0
2019-03-09T03:13:57.192Z,0
2019-03-09T03:14:57.758Z,0
2019-03-09T03:15:58.323Z,0
2019-03-09T03:16:58.889Z,0
2019-03-09T03:17:59.454Z,0
2019-03-09T03:19:00.021Z,0
2019-03-09T03:20:00.590Z,0
2019-03-09T03:21:01.169Z,0
2019-03-09T03:22:01.760Z,0
2019-03-09T03:23:02.379Z,0
2019-03-09T03:24:02.896Z,0
2019-03-09T03:25:03.471Z,0
2019-03-09T03:26:04.152Z,0
2019-03-09T03:27:04.707Z,0
2019-03-09T03:28:05.276Z,0
2019-03-09T03:29:05.842Z,0
2019-03-09T03:30:06.411Z,0
2019-03-09T03:31:06.987Z,0
2019-03-09T03:32:07.571Z,0
2019-03-09T03:33:08.180Z,0
2019-03-09T03:34:08.724Z,0
2019-03-09T03:35:09.290Z,0
2019-03-09T03:36:09.871Z,0
2019-03-09T03:37:10.441Z,0
2019-03-09T03:38:11.003Z,0
2019-03-09T03:39:11.575Z,0
2019-03-09T03:40:12.137Z,0
2019-03-09T03:41:12.704Z,0
2019-03-09T03:42:13.283Z,0
2019-03-09T03:43:16.054Z,0
2019-03-09T03:44:15.421Z,0
2019-03-09T03:45:15.991Z,0
2019-03-09T03:46:16.567Z,0
2019-03-09T03:47:17.136Z,0
2019-03-09T03:48:17.690Z,0
2019-03-09T03:49:18.258Z,0
2019-03-09T03:50:18.826Z,0
2019-03-09T03:51:19.389Z,0
2019-03-09T03:52:19.957Z,0
2019-03-09T03:53:20.523Z,0
2019-03-09T03:54:21.100Z,0
2019-03-09T03:55:21.672Z,0
2019-03-09T03:56:22.236Z,0
2019-03-09T03:57:22.824Z,0
2019-03-09T03:58:23.382Z,0
2019-03-09T03:59:23.961Z,0
2019-03-09T04:00:24.540Z,0
2019-03-09T04:01:25.093Z,0
2019-03-09T04:02:25.658Z,0
2019-03-09T04:03:26.224Z,0
2019-03-09T04:04:26.792Z,0
2019-03-09T04:05:27.371Z,0
2019-03-09T04:06:27.949Z,0
2019-03-09T04:07:28.515Z,0
2019-03-09T04:08:29.081Z,0
2019-03-09T04:09:29.648Z,0
2019-03-09T04:10:30.215Z,0
2019-03-09T04:11:30.779Z,0
2019-03-09T04:12:31.345Z,0
2019-03-09T04:13:31.912Z,0
2019-03-09T04:14:32.492Z,0
2019-03-09T04:15:33.077Z,0
2019-03-09T04:16:33.633Z,0
2019-03-09T04:17:34.195Z,0
2019-03-09T04:18:34.757Z,0
2019-03-09T04:19:35.326Z,0
2019-03-09T04:20:35.892Z,0
2019-03-09T04:21:36.458Z,0
2019-03-09T04:22:37.024Z,0
2019-03-09T04:23:37.606Z,0
2019-03-09T04:24:38.171Z,0
2019-03-09T04:25:38.739Z,0
2019-03-09T04:26:39.407Z,0
2019-03-09T04:27:39.978Z,0
2019-03-09T04:28:40.544Z,0
2019-03-09T04:29:41.123Z,0
2019-03-09T04:30:41.702Z,0
2019-03-09T04:31:42.275Z,0
2019-03-09T04:32:42.849Z,0
2019-03-09T04:33:43.415Z,0
2019-03-09T04:34:43.984Z,0
2019-03-09T04:35:44.550Z,0
2019-03-09T04:36:45.119Z,0
2019-03-09T04:37:45.688Z,0
2019-03-09T04:38:46.251Z,0
2019-03-09T04:39:46.817Z,0
2019-03-09T04:40:47.383Z,0
2019-03-09T04:41:47.953Z,0
2019-03-09T04:42:48.517Z,0
2019-03-09T04:43:49.084Z,0
2019-03-09T04:44:49.651Z,0
2019-03-09T04:45:50.216Z,0
2019-03-09T04:46:50.783Z,0
2019-03-09T04:47:51.350Z,0
2019-03-09T04:48:51.918Z,0
2019-03-09T04:49:52.484Z,0
2019-03-09T04:50:53.050Z,0
2019-03-09T04:51:53.618Z,0
2019-03-09T04:52:54.185Z,0
2019-03-09T04:53:54.754Z,0
2019-03-09T04:54:55.322Z,0
2019-03-09T04:55:55.890Z,0
2019-03-09T04:56:56.460Z,0
2019-03-09T04:57:57.037Z,0
2019-03-09T04:58:57.604Z,0
2019-03-09T04:59:58.173Z,0
2019-03-09T05:00:58.741Z,0
2019-03-09T05:01:59.309Z,0
2019-03-09T05:02:59.875Z,0
2019-03-09T05:04:00.443Z,0
2019-03-09T05:05:01.013Z,0
2019-03-09T05:06:01.579Z,0
2019-03-09T05:07:02.247Z,0
2019-03-09T05:08:02.814Z,0
2019-03-09T05:09:03.394Z,0
2019-03-09T05:10:03.959Z,0
2019-03-09T05:11:04.525Z,0
2019-03-09T05:12:05.092Z,0
2019-03-09T05:13:05.657Z,0
2019-03-09T05:14:06.236Z,0
2019-03-09T05:15:06.803Z,0
2019-03-09T05:16:07.433Z,0
2019-03-09T05:17:07.938Z,0
2019-03-09T05:18:08.506Z,0
2019-03-09T05:19:09.074Z,0
2019-03-09T05:20:09.645Z,0
2019-03-09T05:21:10.205Z,0
2019-03-09T05:22:10.772Z,0
2019-03-09T05:23:11.338Z,0
2019-03-09T05:24:11.905Z,0
2019-03-09T05:25:12.471Z,0
2019-03-09T05:26:13.040Z,0
2019-03-09T05:27:13.604Z,0
2019-03-09T05:28:14.169Z,0
2019-03-09T05:29:14.737Z,0
2019-03-09T05:30:15.303Z,0
2019-03-09T05:31:15.869Z,0
2019-03-09T05:32:16.448Z,0
2019-03-09T05:33:17.016Z,0
2019-03-09T05:34:17.582Z,0
2019-03-09T05:35:18.154Z,0
2019-03-09T05:36:18.722Z,0
2019-03-09T05:37:19.287Z,0
2019-03-09T05:38:19.867Z,0
2019-03-09T05:39:20.433Z,0
2019-03-09T05:40:21.002Z,0
2019-03-09T05:41:21.569Z,0
2019-03-09T05:42:22.139Z,0
2019-03-09T05:43:22.703Z,4
2019-03-09T05:44:23.272Z,0
2019-03-09T05:45:23.838Z,0
2019-03-09T05:46:24.408Z,0
2019-03-09T05:47:24.986Z,4
2019-03-09T05:48:25.555Z,0
2019-03-09T05:49:26.120Z,4
2019-03-09T05:50:26.687Z,0
2019-03-09T05:51:27.255Z,4
2019-03-09T05:52:27.822Z,4
2019-03-09T05:53:28.390Z,4
2019-03-09T05:54:28.957Z,4
2019-03-09T05:55:29.524Z,8
2019-03-09T05:56:30.106Z,8
2019-03-09T05:57:30.670Z,8
2019-03-09T05:58:31.238Z,8
2019-03-09T05:59:31.804Z,8
2019-03-09T06:00:32.387Z,8
2019-03-09T06:01:32.955Z,8
2019-03-09T06:02:33.522Z,12
2019-03-09T06:03:34.100Z,8
2019-03-09T06:04:34.671Z,12
2019-03-09T06:05:35.248Z,12
2019-03-09T06:06:35.837Z,16
2019-03-09T06:07:36.373Z,20
2019-03-09T06:08:36.944Z,16
2019-03-09T06:09:37.514Z,20
2019-03-09T06:10:38.092Z,24
2019-03-09T06:11:38.671Z,28
2019-03-09T06:12:39.240Z,28
2019-03-09T06:13:39.809Z,28
2019-03-09T06:14:40.385Z,28
2019-03-09T06:15:40.948Z,32
2019-03-09T06:16:41.519Z,36
2019-03-09T06:17:42.097Z,36
2019-03-09T06:18:42.670Z,36
2019-03-09T06:19:43.244Z,40
2019-03-09T06:20:43.811Z,44
2019-03-09T06:21:44.386Z,44
2019-03-09T06:22:44.946Z,48
2019-03-09T06:23:45.516Z,52
2019-03-09T06:24:46.085Z,52
2019-03-09T06:25:46.658Z,56
2019-03-09T06:26:47.223Z,60
2019-03-09T06:27:47.794Z,64
2019-03-09T06:28:48.373Z,68
2019-03-09T06:29:48.942Z,64
2019-03-09T06:30:49.510Z,64
2019-03-09T06:31:50.079Z,64
2019-03-09T06:32:50.660Z,64
2019-03-09T06:33:51.229Z,64
2019-03-09T06:34:51.799Z,64
2019-03-09T06:35:52.366Z,64
2019-03-09T06:36:52.951Z,64
2019-03-09T06:37:53.523Z,68
2019-03-09T06:38:54.071Z,68
2019-03-09T06:39:54.640Z,72
2019-03-09T06:41:02.622Z,72
2019-03-09T06:41:56.782Z,76
2019-03-09T06:42:57.351Z,80
2019-03-09T06:43:57.920Z,80
2019-03-09T06:44:58.489Z,80
2019-03-09T06:45:59.057Z,84
2019-03-09T06:46:59.624Z,88
2019-03-09T06:48:00.195Z,92
2019-03-09T06:49:00.776Z,96
2019-03-09T06:50:01.346Z,100
2019-03-09T06:51:01.913Z,104
2019-03-09T06:52:02.481Z,108
2019-03-09T06:53:03.118Z,112
2019-03-09T06:54:03.634Z,116
2019-03-09T06:55:04.205Z,120
2019-03-09T06:56:04.770Z,128
2019-03-09T06:57:13.604Z,128
2019-03-09T06:58:05.915Z,132
2019-03-09T06:59:06.484Z,132
2019-03-09T07:00:07.052Z,136
2019-03-09T07:01:07.621Z,140
2019-03-09T07:02:08.190Z,148
2019-03-09T07:03:08.760Z,152
2019-03-09T07:04:09.330Z,152
2019-03-09T07:05:09.901Z,160
2019-03-09T07:06:10.470Z,164
2019-03-09T07:07:11.039Z,164
2019-03-09T07:08:11.625Z,156
2019-03-09T07:09:12.180Z,156
2019-03-09T07:10:12.752Z,152
2019-03-09T07:11:13.570Z,160
2019-03-09T07:12:14.142Z,172
2019-03-09T07:13:14.709Z,168
2019-03-09T07:14:15.278Z,168
2019-03-09T07:15:15.849Z,168
2019-03-09T07:16:16.419Z,176
2019-03-09T07:17:16.986Z,172
2019-03-09T07:18:17.555Z,164
2019-03-09T07:19:18.129Z,160
2019-03-09T07:20:18.695Z,164
2019-03-09T07:21:19.264Z,164
2019-03-09T07:22:19.839Z,160
2019-03-09T07:23:20.416Z,172
2019-03-09T07:24:20.988Z,172
2019-03-09T07:25:21.556Z,180
2019-03-09T07:26:22.125Z,184
2019-03-09T07:27:22.696Z,184
2019-03-09T07:28:23.279Z,192
2019-03-09T07:29:23.849Z,204
2019-03-09T07:30:24.421Z,196
2019-03-09T07:31:24.991Z,212
2019-03-09T07:32:25.564Z,228
2019-03-09T07:33:26.133Z,232
2019-03-09T07:34:26.705Z,244
2019-03-09T07:35:27.276Z,260
2019-03-09T07:36:27.846Z,280
2019-03-09T07:37:28.419Z,300
2019-03-09T07:38:28.988Z,300
2019-03-09T07:39:29.559Z,288
2019-03-09T07:40:30.133Z,260
2019-03-09T07:41:30.702Z,228
2019-03-09T07:42:31.271Z,212
2019-03-09T07:43:31.840Z,196
2019-03-09T07:44:32.410Z,188
2019-03-09T07:45:32.990Z,180
2019-03-09T07:46:33.549Z,180
2019-03-09T07:47:34.121Z,172
2019-03-09T07:48:34.705Z,172
2019-03-09T07:49:35.274Z,184
2019-03-09T07:50:35.843Z,204
2019-03-09T07:51:36.413Z,220
2019-03-09T07:52:36.982Z,228
2019-03-09T07:53:37.555Z,252
2019-03-09T07:54:38.132Z,260
2019-03-09T07:55:38.701Z,264
2019-03-09T07:56:39.267Z,256
2019-03-09T07:57:39.840Z,244
2019-03-09T07:58:40.409Z,212
2019-03-09T07:59:40.999Z,196
2019-03-09T08:00:41.567Z,192
2019-03-09T08:01:42.138Z,196
2019-03-09T08:02:42.707Z,208
2019-03-09T08:03:43.278Z,212
2019-03-09T08:04:43.861Z,216
2019-03-09T08:05:44.433Z,220
2019-03-09T08:06:45.014Z,232
2019-03-09T08:07:45.586Z,256
2019-03-09T08:08:46.155Z,284
2019-03-09T08:09:46.727Z,296
2019-03-09T08:10:47.298Z,320
2019-03-09T08:11:47.879Z,348
2019-03-09T08:12:48.450Z,368
2019-03-09T08:13:49.023Z,396
2019-03-09T08:14:49.593Z,388
2019-03-09T08:15:50.176Z,388
2019-03-09T08:16:50.747Z,400
2019-03-09T08:17:51.320Z,440
2019-03-09T08:18:51.889Z,416
2019-03-09T08:19:52.460Z,412
2019-03-09T08:20:53.033Z,392
2019-03-09T08:21:53.608Z,376
2019-03-09T08:22:54.176Z,352
2019-03-09T08:23:56.505Z,332
2019-03-09T08:24:55.325Z,312
2019-03-09T08:25:55.905Z,296
2019-03-09T08:26:56.467Z,284
2019-03-09T08:27:57.038Z,276
2019-03-09T08:28:57.613Z,276
2019-03-09T08:29:58.182Z,276
2019-03-09T08:30:58.753Z,280
2019-03-09T08:31:59.323Z,280
2019-03-09T08:32:59.914Z,288
2019-03-09T08:34:00.470Z,300
2019-03-09T08:35:01.039Z,312
2019-03-09T08:36:01.610Z,316
2019-03-09T08:37:02.192Z,320
2019-03-09T08:38:02.764Z,320
2019-03-09T08:39:03.360Z,324
2019-03-09T08:40:03.904Z,324
2019-03-09T08:41:04.517Z,316
2019-03-09T08:42:05.058Z,308
2019-03-09T08:43:05.637Z,288
2019-03-09T08:44:06.324Z,256
2019-03-09T08:45:06.899Z,240
2019-03-09T08:46:07.461Z,252
2019-03-09T08:47:08.023Z,252
2019-03-09T08:48:08.596Z,260
2019-03-09T08:49:09.200Z,276
2019-03-09T08:50:09.760Z,308
2019-03-09T08:51:10.317Z,312
2019-03-09T08:52:10.914Z,312
2019-03-09T08:53:11.489Z,324
2019-03-09T08:54:12.069Z,344
2019-03-09T08:55:12.656Z,356
2019-03-09T08:56:13.286Z,352
2019-03-09T08:57:13.817Z,388
2019-03-09T08:58:14.370Z,412
2019-03-09T08:59:14.956Z,420
2019-03-09T09:00:15.549Z,412
2019-03-09T09:01:16.136Z,404
2019-03-09T09:02:16.684Z,384
2019-03-09T09:03:17.244Z,380
2019-03-09T09:04:17.825Z,380
2019-03-09T09:05:18.398Z,412
2019-03-09T09:06:18.974Z,416
2019-03-09T09:07:19.554Z,420
2019-03-09T09:08:20.119Z,428
2019-03-09T09:09:20.685Z,436
2019-03-09T09:10:21.260Z,432
2019-03-09T09:11:21.829Z,428
2019-03-09T09:12:22.399Z,416
2019-03-09T09:13:22.982Z,412
2019-03-09T09:14:23.566Z,408
2019-03-09T09:15:24.137Z,404
2019-03-09T09:16:24.712Z,408
2019-03-09T09:17:25.282Z,408
2019-03-09T09:18:25.852Z,412
2019-03-09T09:19:26.427Z,420
2019-03-09T09:20:26.999Z,420
2019-03-09T09:21:27.567Z,420
2019-03-09T09:22:28.139Z,416
2019-03-09T09:23:28.711Z,408
2019-03-09T09:24:29.281Z,400
2019-03-09T09:25:29.853Z,408
2019-03-09T09:26:30.480Z,424
2019-03-09T09:27:31.046Z,440
2019-03-09T09:28:31.616Z,460
2019-03-09T09:29:32.188Z,468
2019-03-09T09:30:32.761Z,484
2019-03-09T09:31:33.331Z,500
2019-03-09T09:32:33.910Z,504
2019-03-09T09:33:34.473Z,492
2019-03-09T09:34:35.044Z,492
2019-03-09T09:35:35.628Z,472
2019-03-09T09:36:36.203Z,440
2019-03-09T09:37:36.787Z,420
2019-03-09T09:38:37.358Z,404
2019-03-09T09:39:37.933Z,396
2019-03-09T09:40:38.503Z,412
2019-03-09T09:41:39.074Z,428
2019-03-09T09:42:39.647Z,436
2019-03-09T09:43:40.222Z,436
2019-03-09T09:44:40.793Z,432
2019-03-09T09:45:41.375Z,412
2019-03-09T09:46:41.946Z,388
2019-03-09T09:47:42.797Z,372
2019-03-09T09:48:43.335Z,360
2019-03-09T09:49:43.910Z,352
2019-03-09T09:50:44.478Z,340
2019-03-09T09:51:45.051Z,336
2019-03-09T09:52:45.632Z,320
2019-03-09T09:53:46.211Z,308
2019-03-09T09:54:46.777Z,300
2019-03-09T09:55:47.351Z,296
2019-03-09T09:56:47.921Z,292
2019-03-09T09:57:48.496Z,292
2019-03-09T09:58:49.063Z,284
2019-03-09T09:59:49.635Z,272
2019-03-09T10:00:50.208Z,268
2019-03-09T10:01:50.797Z,268
2019-03-09T10:02:51.364Z,272
2019-03-09T10:03:51.937Z,280
2019-03-09T10:04:52.508Z,300
2019-03-09T10:05:53.080Z,316
2019-03-09T10:06:53.653Z,328
2019-03-09T10:07:54.225Z,344
2019-03-09T10:08:54.806Z,360
2019-03-09T10:09:55.382Z,380
2019-03-09T10:10:55.951Z,396
2019-03-09T10:11:56.522Z,408
2019-03-09T10:12:57.095Z,416
2019-03-09T10:13:57.664Z,424
2019-03-09T10:14:58.236Z,424
2019-03-09T10:15:58.806Z,424
2019-03-09T10:16:59.384Z,428
2019-03-09T10:17:59.954Z,432
2019-03-09T10:19:00.527Z,436
2019-03-09T10:20:01.111Z,444
2019-03-09T10:21:01.679Z,448
2019-03-09T10:22:02.251Z,460
2019-03-09T10:23:04.630Z,480
2019-03-09T10:24:04.391Z,488
2019-03-09T10:25:04.963Z,492
2019-03-09T10:26:05.534Z,500
2019-03-09T10:27:06.110Z,504
2019-03-09T10:28:06.676Z,500
2019-03-09T10:29:07.249Z,500
2019-03-09T10:30:07.822Z,500
2019-03-09T10:31:08.392Z,512
2019-03-09T10:32:08.963Z,512
2019-03-09T10:33:09.534Z,516
2019-03-09T10:34:10.107Z,532
2019-03-09T10:35:10.678Z,552
2019-03-09T10:36:11.251Z,544
2019-03-09T10:37:11.823Z,552
2019-03-09T10:38:12.395Z,548
2019-03-09T10:39:12.968Z,540
2019-03-09T10:40:13.541Z,520
2019-03-09T10:41:14.111Z,532
2019-03-09T10:42:14.679Z,528
2019-03-09T10:43:15.249Z,532
2019-03-09T10:44:15.828Z,532
2019-03-09T10:45:16.446Z,512
2019-03-09T10:46:16.979Z,496
2019-03-09T10:47:17.554Z,484
2019-03-09T10:48:18.154Z,484
2019-03-09T10:49:18.709Z,480
2019-03-09T10:50:19.281Z,484
2019-03-09T10:51:19.853Z,488
2019-03-09T10:52:20.424Z,492
2019-03-09T10:53:20.999Z,500
2019-03-09T10:54:21.573Z,508
2019-03-09T10:55:22.144Z,496
2019-03-09T10:56:22.714Z,480
2019-03-09T10:57:23.286Z,468
2019-03-09T10:58:23.859Z,456
2019-03-09T10:59:24.439Z,452
2019-03-09T11:00:25.004Z,448
2019-03-09T11:01:25.583Z,456
2019-03-09T11:02:26.148Z,444
2019-03-09T11:03:26.720Z,440
2019-03-09T11:04:28.050Z,436
2019-03-09T11:05:28.591Z,444
2019-03-09T11:06:29.170Z,436
2019-03-09T11:07:29.743Z,448
2019-03-09T11:08:30.319Z,460
2019-03-09T11:09:30.888Z,456
2019-03-09T11:10:31.467Z,468
2019-03-09T11:11:32.045Z,484
2019-03-09T11:12:32.616Z,500
2019-03-09T11:13:33.188Z,516
2019-03-09T11:14:33.761Z,524
2019-03-09T11:15:34.340Z,540
2019-03-09T11:16:34.917Z,544
2019-03-09T11:17:35.489Z,532
2019-03-09T11:18:36.060Z,536
2019-03-09T11:19:36.634Z,552
2019-03-09T11:20:37.206Z,580
2019-03-09T12:23:43.725Z,532
2019-03-09T12:24:44.297Z,616
2019-03-09T12:25:44.869Z,568
2019-03-09T12:26:45.499Z,540
2019-03-09T12:27:46.017Z,608
2019-03-09T12:28:46.586Z,648
2019-03-09T12:29:47.157Z,632
2019-03-09T12:30:47.734Z,600
2019-03-09T12:31:48.302Z,576
2019-03-09T12:32:48.877Z,584
2019-03-09T12:33:49.448Z,632
2019-03-09T12:34:50.019Z,516
2019-03-09T12:35:50.591Z,500
2019-03-09T12:36:51.164Z,524
2019-03-09T12:37:51.746Z,496
2019-03-09T12:38:52.319Z,464
2019-03-09T12:39:52.891Z,508
2019-03-09T12:40:53.466Z,556
2019-03-09T12:41:54.038Z,524
2019-03-09T12:42:54.607Z,484
2019-03-09T12:43:55.179Z,472
2019-03-09T12:44:55.752Z,492
2019-03-09T12:45:56.335Z,480
2019-03-09T12:46:56.904Z,484
2019-03-09T12:47:57.477Z,508
2019-03-09T12:48:58.050Z,484
2019-03-09T12:49:58.622Z,464
2019-03-09T12:50:59.193Z,404
2019-03-09T12:51:59.765Z,396
2019-03-09T12:53:00.353Z,376
2019-03-09T12:54:00.910Z,352
2019-03-09T12:55:01.483Z,332
2019-03-09T12:56:02.057Z,356
2019-03-09T12:57:02.626Z,376
2019-03-09T12:58:03.200Z,372
2019-03-09T12:59:03.774Z,344
2019-03-09T13:00:04.352Z,268
2019-03-09T13:01:04.923Z,220
2019-03-09T13:02:05.494Z,188
2019-03-09T13:03:06.065Z,220
2019-03-09T13:04:06.642Z,252
2019-03-09T13:05:07.210Z,264
2019-03-09T13:06:07.784Z,292
2019-03-09T13:07:08.355Z,292
2019-03-09T13:08:08.938Z,296
2019-03-09T13:09:09.511Z,272
2019-03-09T13:10:10.088Z,232
2019-03-09T13:11:10.665Z,220
2019-03-09T13:12:11.237Z,224
2019-03-09T13:13:11.812Z,208
2019-03-09T13:14:12.378Z,216
2019-03-09T13:15:12.949Z,260
2019-03-09T13:16:13.522Z,264
2019-03-09T13:17:14.095Z,280
2019-03-09T13:18:14.667Z,276
2019-03-09T13:19:15.317Z,284
2019-03-09T13:20:15.838Z,224
2019-03-09T13:21:16.463Z,172
2019-03-09T13:22:17.035Z,184
2019-03-09T13:23:17.604Z,184
2019-03-09T13:24:18.186Z,152
2019-03-09T13:25:18.757Z,116
2019-03-09T13:26:19.326Z,92
2019-03-09T13:27:19.898Z,76
2019-03-09T13:28:20.478Z,92
2019-03-09T13:29:21.050Z,108
2019-03-09T13:30:21.640Z,108
2019-03-09T13:31:22.194Z,92
2019-03-09T13:32:22.757Z,76
2019-03-09T13:33:23.326Z,60
2019-03-09T13:34:23.896Z,56
2019-03-09T13:35:24.466Z,64
2019-03-09T13:36:25.047Z,92
2019-03-09T13:37:25.639Z,112
2019-03-09T13:38:26.210Z,120
2019-03-09T13:39:26.780Z,152
2019-03-09T13:40:27.352Z,160
2019-03-09T13:41:27.923Z,164
2019-03-09T13:42:28.495Z,164
2019-03-09T13:43:29.063Z,204
2019-03-09T13:44:29.636Z,276
2019-03-09T13:45:30.204Z,300
2019-03-09T13:46:30.774Z,244
2019-03-09T13:47:31.359Z,256
2019-03-09T13:48:31.942Z,332
2019-03-09T13:49:32.514Z,564
2019-03-09T13:50:33.085Z,660
2019-03-09T13:51:33.655Z,628
2019-03-09T13:52:34.240Z,560
2019-03-09T13:53:34.826Z,524
2019-03-09T13:54:35.394Z,624
2019-03-09T13:55:35.966Z,688
2019-03-09T13:56:36.536Z,668
2019-03-09T13:57:37.106Z,792
2019-03-09T13:58:37.677Z,744
2019-03-09T13:59:38.251Z,684
2019-03-09T14:00:40.746Z,668
2019-03-09T14:01:40.406Z,636
2019-03-09T14:02:40.970Z,616
2019-03-09T14:03:41.543Z,620
2019-03-09T14:04:42.112Z,628
2019-03-09T14:05:42.684Z,640
2019-03-09T14:06:43.253Z,648
2019-03-09T14:07:43.828Z,652
2019-03-09T14:08:44.407Z,664
2019-03-09T14:09:44.990Z,672
2019-03-09T14:10:45.562Z,676
2019-03-09T14:11:46.154Z,688
2019-03-09T14:12:46.717Z,692
2019-03-09T14:13:47.286Z,680
2019-03-09T14:14:47.856Z,616
2019-03-09T14:15:48.427Z,652
2019-03-09T14:16:48.998Z,692
2019-03-09T14:17:49.570Z,688
2019-03-09T14:18:50.142Z,664
2019-03-09T14:19:50.714Z,468
2019-03-09T14:20:51.282Z,420
2019-03-09T14:21:51.854Z,308
2019-03-09T14:22:52.426Z,256
2019-03-09T14:23:52.996Z,224
2019-03-09T14:24:53.567Z,200
2019-03-09T14:25:54.142Z,192
2019-03-09T14:26:54.717Z,184
2019-03-09T14:27:55.288Z,172
2019-03-09T14:28:55.853Z,152
2019-03-09T14:29:56.424Z,144
2019-03-09T14:30:56.993Z,140
2019-03-09T14:31:57.563Z,140
2019-03-09T14:32:58.132Z,148
2019-03-09T14:33:58.702Z,136
2019-03-09T14:34:59.271Z,132
2019-03-09T14:35:59.844Z,136
2019-03-09T14:37:00.413Z,144
2019-03-09T14:38:00.984Z,160
2019-03-09T14:39:01.553Z,168
2019-03-09T14:40:02.133Z,184
2019-03-09T14:41:02.699Z,184
2019-03-09T14:42:03.277Z,168
2019-03-09T14:43:03.844Z,148
2019-03-09T14:44:04.415Z,132
2019-03-09T14:45:04.996Z,112
2019-03-09T14:46:05.576Z,96
2019-03-09T14:47:06.147Z,76
2019-03-09T14:48:06.716Z,64
2019-03-09T14:49:07.284Z,56
2019-03-09T14:50:07.855Z,44
2019-03-09T14:51:08.422Z,44
2019-03-09T14:52:08.993Z,36
2019-03-09T14:53:09.576Z,36
2019-03-09T14:54:10.142Z,32
2019-03-09T14:55:10.713Z,24
2019-03-09T14:56:11.280Z,24
2019-03-09T14:57:11.851Z,20
2019-03-09T14:58:12.420Z,24
2019-03-09T14:59:12.987Z,24
2019-03-09T15:00:13.568Z,28
2019-03-09T15:01:14.137Z,32
2019-03-09T15:02:14.707Z,36
2019-03-09T15:03:15.274Z,32
2019-03-09T15:04:15.847Z,28
2019-03-09T15:05:16.413Z,20
2019-03-09T15:06:16.981Z,20
2019-03-09T15:07:17.549Z,16
2019-03-09T15:08:18.117Z,20
2019-03-09T15:09:18.685Z,20
2019-03-09T15:10:19.254Z,20
2019-03-09T15:11:19.823Z,20
2019-03-09T15:12:20.392Z,20
2019-03-09T15:13:20.962Z,20
2019-03-09T15:14:21.535Z,16
2019-03-09T15:15:22.101Z,16
2019-03-09T15:16:22.667Z,20
2019-03-09T15:17:23.235Z,16
2019-03-09T15:18:23.815Z,16
2019-03-09T15:19:25.014Z,20
2019-03-09T15:20:24.962Z,20
2019-03-09T15:21:25.526Z,20
2019-03-09T15:22:26.092Z,16
2019-03-09T15:23:26.659Z,16
2019-03-09T15:24:27.235Z,16